Time;durP1;ratioP1;P1;durP2;ratioP2;P2;SDS_P1;SDS_P2;PMS_P1;PMS_P2;Temp;Humidity;BMP_temperature;BMP_pressure;BME280_temperature;BME280_humidity;BME280_pressure;Samples;Min_cycle;Max_cycle;Signal;HPM_P1;HPM_P2
2022/12/04 00:00:50;;;;;;;45.92;18.98;;;5.50;99.90;;;;;;5052301;28;20431;-47
2022/12/04 00:03:16;;;;;;;47.75;18.13;;;5.50;99.90;;;;;;5051705;28;20036;-47
2022/12/04 00:05:41;;;;;;;47.22;20.20;;;5.50;99.90;;;;;;5042360;28;20549;-41
2022/12/04 00:08:07;;;;;;;45.17;18.70;;;5.50;99.90;;;;;;5052067;28;20104;-51
2022/12/04 00:10:32;;;;;;;53.17;17.08;;;4.50;99.90;;;;;;5052270;28;20017;-44
2022/12/04 00:12:58;;;;;;;50.60;19.35;;;5.00;99.90;;;;;;5052018;28;20369;-40
2022/12/04 00:15:24;;;;;;;41.65;16.60;;;5.50;99.90;;;;;;5051999;28;20040;-44
2022/12/04 00:17:49;;;;;;;44.25;17.45;;;5.50;99.90;;;;;;5052047;28;20400;-43
2022/12/04 00:20:15;;;;;;;46.80;18.52;;;7.10;99.90;;;;;;5051714;28;20044;-44
2022/12/04 00:22:41;;;;;;;49.92;17.50;;;5.60;99.90;;;;;;5051940;28;20032;-44
2022/12/04 00:25:07;;;;;;;47.88;17.23;;;5.50;99.90;;;;;;5049705;28;20434;-48
2022/12/04 00:27:33;;;;;;;44.30;18.38;;;;;;;;;;5039982;28;20360;-44
2022/12/04 00:29:59;;;;;;;45.35;17.13;;;4.90;99.90;;;;;;5051804;28;20025;-44
2022/12/04 00:32:24;;;;;;;42.20;16.63;;;5.50;99.90;;;;;;5051607;28;20013;-39
2022/12/04 00:34:53;;;;;;;46.80;18.02;;;5.50;99.90;;;;;;5051735;28;20028;-42
2022/12/04 00:37:19;;;;;;;47.30;16.38;;;6.00;99.90;;;;;;5037343;28;20060;-41
2022/12/04 00:39:44;;;;;;;43.60;15.82;;;5.50;99.90;;;;;;5051649;28;20511;-41
2022/12/04 00:42:10;;;;;;;41.42;16.77;;;5.60;99.90;;;;;;5051114;28;20037;-42
2022/12/04 00:44:36;;;;;;;37.88;16.40;;;6.10;99.90;;;;;;5051521;28;20060;-41
2022/12/04 00:47:01;;;;;;;48.20;16.38;;;5.50;99.90;;;;;;5040465;28;20045;-44
2022/12/04 00:49:27;;;;;;;41.50;16.83;;;5.50;99.90;;;;;;5048245;28;20037;-46
2022/12/04 00:51:52;;;;;;;42.30;17.27;;;6.10;99.90;;;;;;5051452;28;20040;-49
2022/12/04 00:54:18;;;;;;;44.90;17.08;;;5.50;99.90;;;;;;5051153;28;20490;-49
2022/12/04 00:56:44;;;;;;;38.97;16.02;;;;;;;;;;5038187;28;20131;-43
2022/12/04 00:59:10;;;;;;;47.30;16.83;;;5.40;99.90;;;;;;5031812;28;20083;-46
2022/12/04 01:01:35;;;;;;;47.58;16.55;;;6.90;99.90;;;;;;5049826;28;20055;-45
2022/12/04 01:04:01;;;;;;;46.42;17.20;;;5.90;99.90;;;;;;5051221;28;20039;-46
2022/12/04 01:06:27;;;;;;;45.30;17.13;;;;;;;;;;5051115;28;20040;-42
2022/12/04 01:08:54;;;;;;;46.75;16.65;;;6.60;99.90;;;;;;5051130;28;20062;-42
2022/12/04 01:11:22;;;;;;;38.47;15.40;;;5.80;99.90;;;;;;5050800;28;20518;-47
2022/12/04 01:13:47;;;;;;;43.80;15.57;;;4.90;99.90;;;;;;5049702;28;20056;-40
2022/12/04 01:16:23;;;;;;;41.33;15.93;;;6.70;99.90;;;;;;5051067;28;20498;-42
2022/12/04 01:18:50;;;;;;;46.65;16.17;;;5.30;99.90;;;;;;5051001;28;20068;-48
2022/12/04 01:21:16;;;;;;;34.58;14.25;;;5.60;99.90;;;;;;5023135;28;20381;-46
2022/12/04 01:23:43;;;;;;;37.58;15.30;;;5.40;99.90;;;;;;5030836;28;20105;-41
2022/12/04 01:26:09;;;;;;;41.22;15.35;;;6.30;99.90;;;;;;5030654;28;20055;-41
2022/12/04 01:28:35;;;;;;;39.72;15.70;;;5.40;99.90;;;;;;5032484;28;20041;-47
2022/12/04 01:31:03;;;;;;;42.28;14.70;;;5.40;99.90;;;;;;5042064;28;20021;-49
2022/12/04 01:33:30;;;;;;;37.22;15.40;;;5.40;99.90;;;;;;5030614;28;20033;-46
2022/12/04 01:35:58;;;;;;;37.13;15.48;;;5.40;99.90;;;;;;5035651;28;20074;-47
2022/12/04 01:38:24;;;;;;;39.28;15.40;;;5.40;99.90;;;;;;5036991;28;20037;-40
2022/12/04 01:40:50;;;;;;;38.40;15.68;;;5.30;99.90;;;;;;5030481;28;20048;-41
2022/12/04 01:43:17;;;;;;;36.05;15.00;;;5.50;99.90;;;;;;5047342;28;20443;-43
2022/12/04 01:45:46;;;;;;;36.30;15.25;;;5.20;99.90;;;;;;5032265;28;20424;-40
2022/12/04 01:48:41;;;;;;;40.35;14.88;;;5.40;99.90;;;;;;5036734;28;20136;-39
2022/12/04 01:51:23;;;;;;;35.78;14.50;;;6.00;99.90;;;;;;5041710;28;20098;-39
2022/12/04 01:53:54;;;;;;;33.45;13.38;;;4.70;99.90;;;;;;5040657;28;20034;-40
2022/12/04 01:56:25;;;;;;;37.92;15.32;;;5.30;99.90;;;;;;5034258;28;20069;-41
2022/12/04 01:58:55;;;;;;;37.95;15.70;;;3.90;99.90;;;;;;5034387;28;20037;-43
2022/12/04 02:01:21;;;;;;;35.83;14.90;;;5.30;99.90;;;;;;5034730;28;20445;-39
2022/12/04 02:03:48;;;;;;;39.40;14.20;;;5.40;99.90;;;;;;5034476;28;20114;-40
2022/12/04 02:06:14;;;;;;;35.97;14.50;;;5.70;99.90;;;;;;5034367;28;20410;-39
2022/12/04 02:08:40;;;;;;;37.47;14.65;;;5.20;99.90;;;;;;5034344;28;20030;-41
2022/12/04 02:11:18;;;;;;;37.00;14.63;;;5.80;99.90;;;;;;5034404;28;20018;-40
2022/12/04 02:14:10;;;;;;;38.63;15.82;;;6.00;99.90;;;;;;5034207;28;20104;-43
2022/12/04 02:17:03;;;;;;;38.97;15.23;;;5.30;99.90;;;;;;5034144;28;20060;-39
2022/12/04 02:19:43;;;;;;;37.85;15.70;;;5.00;99.90;;;;;;5034147;28;20504;-42
2022/12/04 02:22:23;;;;;;;39.50;17.80;;;4.50;99.90;;;;;;5034063;28;20478;-40
2022/12/04 02:25:14;;;;;;;43.15;18.20;;;5.20;99.90;;;;;;5026897;28;20037;-39
2022/12/04 02:27:40;;;;;;;44.80;18.38;;;5.20;99.90;;;;;;5033945;28;20037;-50
2022/12/04 02:30:09;;;;;;;44.95;19.90;;;5.10;99.90;;;;;;5041832;28;20028;-40
2022/12/04 02:32:45;;;;;;;52.27;19.30;;;5.20;99.90;;;;;;5033940;28;20100;-39
2022/12/04 02:35:24;;;;;;;49.92;20.95;;;5.00;99.90;;;;;;5065891;28;20025;-39
2022/12/04 02:38:05;;;;;;;45.55;20.38;;;6.30;99.90;;;;;;5033859;28;20068;-40
2022/12/04 02:40:35;;;;;;;47.40;19.48;;;5.40;99.90;;;;;;5033830;28;20047;-39
2022/12/04 02:43:24;;;;;;;47.05;19.50;;;5.10;99.90;;;;;;5033809;28;20025;-39
2022/12/04 02:46:09;;;;;;;43.50;18.90;;;5.10;99.90;;;;;;5033656;28;20029;-41
2022/12/04 02:48:40;;;;;;;44.88;19.27;;;5.20;99.90;;;;;;5043481;28;20023;-39
2022/12/04 02:51:10;;;;;;;45.60;20.58;;;5.10;99.90;;;;;;5043163;28;20025;-44
2022/12/04 02:53:41;;;;;;;43.10;20.52;;;5.60;99.90;;;;;;5033436;28;20029;-46
2022/12/04 02:56:12;;;;;;;49.80;20.35;;;5.30;99.90;;;;;;5032193;28;20180;-40
2022/12/04 02:59:01;;;;;;;48.58;20.17;;;5.20;99.90;;;;;;5033658;28;20049;-41
2022/12/04 03:01:32;;;;;;;44.60;19.95;;;7.90;99.90;;;;;;5033643;28;20195;-41
2022/12/04 03:04:19;;;;;;;45.42;19.55;;;6.70;99.90;;;;;;5033129;28;20037;-41
2022/12/04 03:06:51;;;;;;;45.20;19.63;;;5.10;99.90;;;;;;5032935;28;20084;-40
2022/12/04 03:09:23;;;;;;;52.22;20.25;;;5.10;99.90;;;;;;5032985;28;20017;-43
2022/12/04 03:11:55;;;;;;;45.90;19.70;;;5.00;99.90;;;;;;5033276;28;20029;-40
2022/12/04 03:14:30;;;;;;;45.30;20.27;;;4.60;99.90;;;;;;5033037;28;20033;-40
2022/12/04 03:17:01;;;;;;;42.72;18.92;;;5.10;99.90;;;;;;5033149;28;20028;-45
2022/12/04 03:19:33;;;;;;;44.33;21.23;;;5.10;99.90;;;;;;5033217;28;20037;-40
2022/12/04 03:22:05;;;;;;;45.22;19.17;;;5.50;99.90;;;;;;5033076;28;20029;-40
2022/12/04 03:24:43;;;;;;;45.92;20.40;;;4.60;99.90;;;;;;5031790;28;20018;-39
2022/12/04 03:27:09;;;;;;;53.13;20.50;;;;;;;;;;5032556;28;20088;-40
2022/12/04 03:29:46;;;;;;;48.58;20.48;;;5.20;99.90;;;;;;5033106;28;20021;-41
2022/12/04 03:32:22;;;;;;;51.85;20.60;;;5.10;99.90;;;;;;5031710;28;20120;-41
2022/12/04 03:34:57;;;;;;;53.63;22.17;;;5.10;99.90;;;;;;5032935;28;20032;-40
2022/12/04 03:37:47;;;;;;;49.00;21.48;;;5.10;99.90;;;;;;5031350;28;20112;-42
2022/12/04 03:40:24;;;;;;;51.00;19.58;;;5.00;99.90;;;;;;5031629;28;20037;-39
2022/12/04 03:42:56;;;;;;;45.35;20.45;;;5.20;99.90;;;;;;5032569;28;20492;-45
2022/12/04 03:45:51;;;;;;;48.72;20.50;;;5.10;99.90;;;;;;5032925;28;20052;-40
2022/12/04 03:48:30;;;;;;;49.30;19.92;;;3.60;99.90;;;;;;5032287;28;20087;-39
2022/12/04 03:51:07;;;;;;;48.07;20.97;;;5.00;99.90;;;;;;5032692;28;20034;-38
2022/12/04 03:53:49;;;;;;;48.10;20.10;;;5.00;99.90;;;;;;5032557;28;20033;-45
2022/12/04 03:56:36;;;;;;;48.90;19.80;;;4.90;99.90;;;;;;5032141;28;20033;-39
2022/12/04 03:59:14;;;;;;;41.45;19.25;;;5.10;99.90;;;;;;5031867;28;20045;-42
2022/12/04 04:01:45;;;;;;;43.15;19.85;;;5.10;99.90;;;;;;5032365;28;20029;-43
2022/12/04 04:04:21;;;;;;;43.97;19.35;;;5.20;99.90;;;;;;5032422;28;20068;-41
2022/12/04 04:06:55;;;;;;;46.60;20.95;;;5.10;99.90;;;;;;5031984;28;20044;-43
2022/12/04 04:09:26;;;;;;;41.30;18.73;;;5.00;99.90;;;;;;5032249;28;20030;-47
2022/12/04 04:12:01;;;;;;;50.88;21.60;;;4.70;99.90;;;;;;5032198;28;20072;-44
2022/12/04 04:24:13;;;;;;;45.55;19.77;;;5.90;99.90;;;;;;5029936;28;20445;-40
2022/12/04 04:26:25;;;;;;;48.20;19.42;;;5.50;99.90;;;;;;5031960;28;19946;-48
2022/12/04 04:28:51;;;;;;;44.20;19.40;;;;;;;;;;5033500;28;20032;-46
2022/12/04 04:31:36;;;;;;;50.05;20.63;;;5.20;99.90;;;;;;5039411;28;20041;-40
2022/12/04 04:34:21;;;;;;;47.38;21.58;;;4.80;99.90;;;;;;5049367;28;20029;-50
2022/12/04 04:37:09;;;;;;;48.78;20.30;;;4.60;99.90;;;;;;5032588;28;20400;-40
2022/12/04 04:39:53;;;;;;;44.10;20.13;;;5.20;99.90;;;;;;5035071;28;20120;-41
2022/12/04 04:42:28;;;;;;;41.20;18.92;;;5.10;99.90;;;;;;5041667;28;20108;-46
2022/12/04 04:45:11;;;;;;;41.67;19.10;;;5.20;99.90;;;;;;5042707;28;20040;-44
2022/12/04 04:47:46;;;;;;;42.53;19.65;;;5.10;99.90;;;;;;5043019;28;20017;-39
2022/12/04 04:50:14;;;;;;;44.95;20.05;;;5.10;99.90;;;;;;5048883;28;20031;-41
2022/12/04 04:52:45;;;;;;;43.88;20.05;;;5.20;99.90;;;;;;5045165;28;20025;-40
2022/12/04 04:55:12;;;;;;;44.53;19.52;;;5.00;99.90;;;;;;5048256;28;20048;-43
2022/12/04 04:57:38;;;;;;;42.05;18.83;;;4.40;99.90;;;;;;5045131;28;20168;-47
2022/12/04 05:00:10;;;;;;;41.17;19.48;;;5.20;99.90;;;;;;5047787;28;20107;-54
2022/12/04 05:02:36;;;;;;;40.20;18.90;;;5.00;99.90;;;;;;5048511;28;20052;-40
2022/12/04 05:05:02;;;;;;;41.45;18.20;;;;;;;;;;5049296;28;20490;-47
2022/12/04 05:07:27;;;;;;;44.33;18.90;;;2.90;99.90;;;;;;5041756;28;20020;-40
2022/12/04 05:09:53;;;;;;;39.10;19.30;;;5.10;99.90;;;;;;5032319;28;20044;-40
2022/12/04 05:12:18;;;;;;;47.70;20.00;;;5.10;99.90;;;;;;5030831;28;20030;-40
2022/12/04 05:14:46;;;;;;;42.13;19.55;;;5.20;99.90;;;;;;5032519;28;20091;-42
2022/12/04 05:17:12;;;;;;;44.25;19.08;;;5.10;99.90;;;;;;5030878;28;20026;-47
2022/12/04 05:19:52;;;;;;;43.83;19.92;;;5.00;99.90;;;;;;5029698;28;20053;-43
2022/12/04 05:22:20;;;;;;;38.35;17.17;;;5.40;99.90;;;;;;5035672;28;20028;-46
2022/12/04 05:24:46;;;;;;;45.72;18.13;;;5.50;99.90;;;;;;5039590;28;20053;-44
2022/12/04 05:27:12;;;;;;;40.70;17.85;;;5.00;99.90;;;;;;5029833;28;20061;-40
2022/12/04 05:29:38;;;;;;;42.60;19.52;;;5.40;99.90;;;;;;5030697;28;20112;-40
2022/12/04 05:32:04;;;;;;;37.88;17.73;;;6.40;99.90;;;;;;5029695;28;20034;-44
2022/12/04 05:34:30;;;;;;;39.72;18.55;;;5.00;99.90;;;;;;5030689;28;20648;-47
2022/12/04 05:36:56;;;;;;;40.88;18.52;;;5.00;99.90;;;;;;5030729;28;20021;-40
2022/12/04 05:39:21;;;;;;;40.92;18.52;;;2.80;99.90;;;;;;5045011;28;20021;-44
2022/12/04 05:41:47;;;;;;;39.92;17.65;;;4.30;99.90;;;;;;5030866;28;20029;-40
2022/12/04 05:44:13;;;;;;;42.22;19.67;;;6.20;99.90;;;;;;5030634;28;20044;-40
2022/12/04 05:46:38;;;;;;;39.63;17.67;;;5.00;99.90;;;;;;5029455;28;21050;-41
2022/12/04 05:49:04;;;;;;;38.45;16.95;;;4.90;99.90;;;;;;5029452;28;20112;-41
2022/12/04 05:51:29;;;;;;;34.25;15.90;;;5.10;99.90;;;;;;5030810;28;20424;-43
2022/12/04 05:53:55;;;;;;;36.83;16.40;;;;;;;;;;5030683;28;20124;-41
2022/12/04 05:56:22;;;;;;;38.72;16.17;;;;;;;;;;5030268;28;20042;-41
2022/12/04 05:58:47;;;;;;;36.33;16.25;;;5.10;99.90;;;;;;5030347;28;20045;-39
2022/12/04 06:01:19;;;;;;;32.33;15.85;;;4.80;99.90;;;;;;5030555;28;20025;-43
2022/12/04 06:03:45;;;;;;;36.08;15.68;;;4.90;99.90;;;;;;5030656;28;20443;-45
2022/12/04 06:06:31;;;;;;;37.03;16.25;;;6.70;99.90;;;;;;5030581;28;20014;-43
2022/12/04 06:08:59;;;;;;;29.77;13.98;;;4.30;99.90;;;;;;5030441;28;20053;-47
2022/12/04 06:11:30;;;;;;;27.35;12.73;;;4.80;99.90;;;;;;5030287;28;20017;-46
2022/12/04 06:13:57;;;;;;;25.27;12.07;;;4.70;99.90;;;;;;5030433;28;20041;-40
2022/12/04 06:16:28;;;;;;;21.13;11.30;;;4.70;99.90;;;;;;5030070;28;20166;-44
2022/12/04 06:19:06;;;;;;;23.13;11.55;;;4.60;99.90;;;;;;5030114;28;20049;-47
2022/12/04 06:21:34;;;;;;;21.00;10.85;;;5.50;99.90;;;;;;5030415;28;20542;-47
2022/12/04 06:24:00;;;;;;;21.20;10.73;;;4.80;99.90;;;;;;5030292;28;20067;-43
2022/12/04 06:26:26;;;;;;;22.45;10.73;;;4.60;99.90;;;;;;5030288;28;20025;-43
2022/12/04 06:28:53;;;;;;;22.13;11.10;;;5.60;99.90;;;;;;5030189;28;20079;-45
2022/12/04 06:31:19;;;;;;;22.02;11.13;;;;;;;;;;5030340;28;20036;-44
2022/12/04 06:33:45;;;;;;;22.23;10.02;;;3.60;99.90;;;;;;5030066;28;20029;-41
2022/12/04 06:36:13;;;;;;;22.35;11.65;;;4.60;99.90;;;;;;5030374;28;20080;-51
2022/12/04 06:38:40;;;;;;;20.02;10.63;;;4.60;99.90;;;;;;5030449;28;20041;-44
2022/12/04 06:41:07;;;;;;;20.40;10.40;;;4.60;99.90;;;;;;5033767;28;20033;-40
2022/12/04 06:43:33;;;;;;;19.98;9.43;;;4.60;99.90;;;;;;5033969;28;20017;-45
2022/12/04 06:46:09;;;;;;;21.48;9.48;;;4.60;99.90;;;;;;5032403;28;20109;-41
2022/12/04 06:48:35;;;;;;;22.23;9.85;;;5.50;99.90;;;;;;5033660;28;20033;-43
2022/12/04 06:51:06;;;;;;;21.20;9.93;;;4.20;99.90;;;;;;5033554;28;20056;-46
2022/12/04 06:53:33;;;;;;;21.20;10.52;;;4.50;99.90;;;;;;5033571;28;20108;-39
2022/12/04 06:56:01;;;;;;;22.33;10.10;;;4.60;99.90;;;;;;5031923;28;20096;-44
2022/12/04 06:58:27;;;;;;;23.20;10.07;;;4.40;99.90;;;;;;5038231;28;20029;-49
2022/12/04 07:00:54;;;;;;;19.25;8.82;;;5.00;99.90;;;;;;5038617;28;20033;-46
2022/12/04 07:03:20;;;;;;;18.80;9.07;;;4.50;99.90;;;;;;5033395;28;20104;-54
2022/12/04 07:05:46;;;;;;;17.00;8.73;;;4.60;99.90;;;;;;5033301;28;20423;-41
2022/12/04 07:08:12;;;;;;;20.48;9.20;;;4.60;99.90;;;;;;5033416;28;20128;-45
2022/12/04 07:10:38;;;;;;;19.08;8.75;;;4.80;99.90;;;;;;5033538;28;20025;-40
2022/12/04 07:13:05;;;;;;;21.27;9.65;;;4.60;99.90;;;;;;5033262;28;20079;-39
2022/12/04 07:15:32;;;;;;;19.00;8.60;;;5.00;99.90;;;;;;5033107;28;20029;-40
2022/12/04 07:17:58;;;;;;;19.83;9.15;;;4.70;99.90;;;;;;5031868;28;20507;-41
2022/12/04 07:20:24;;;;;;;19.02;9.27;;;4.60;99.90;;;;;;5033060;28;20029;-54
2022/12/04 07:22:50;;;;;;;21.50;10.07;;;5.40;99.90;;;;;;5033231;28;20076;-41
2022/12/04 07:25:16;;;;;;;21.38;9.65;;;4.50;99.90;;;;;;5032988;28;20500;-40
2022/12/04 07:27:42;;;;;;;19.98;8.80;;;2.40;99.90;;;;;;5033056;28;20064;-49
2022/12/04 07:30:08;;;;;;;23.17;9.40;;;4.70;99.90;;;;;;5033182;28;20025;-49
2022/12/04 07:32:35;;;;;;;19.70;9.38;;;4.50;99.90;;;;;;5032487;28;20036;-50
2022/12/04 07:35:01;;;;;;;21.55;10.15;;;3.80;99.90;;;;;;5033182;28;20017;-41
2022/12/04 07:37:26;;;;;;;21.40;9.30;;;5.00;99.90;;;;;;5031283;28;20464;-40
2022/12/04 07:39:52;;;;;;;19.45;9.25;;;4.80;99.90;;;;;;5032986;28;20033;-42
2022/12/04 07:42:19;;;;;;;24.20;10.82;;;6.40;99.90;;;;;;5032668;28;20029;-44
2022/12/04 07:44:45;;;;;;;27.25;12.75;;;5.70;99.90;;;;;;5032829;28;20071;-44
2022/12/04 07:47:11;;;;;;;26.02;12.65;;;4.50;99.90;;;;;;5032594;28;20037;-50
2022/12/04 07:49:37;;;;;;;27.55;13.07;;;5.00;99.90;;;;;;5032358;28;20056;-40
2022/12/04 07:52:03;;;;;;;25.75;13.00;;;4.50;99.90;;;;;;5031874;28;20036;-40
2022/12/04 07:54:29;;;;;;;29.75;14.65;;;;;;;;;;5032240;28;20483;-42
2022/12/04 07:56:55;;;;;;;33.50;14.63;;;4.90;99.90;;;;;;5032087;28;20044;-41
2022/12/04 07:59:21;;;;;;;32.90;13.13;;;5.00;99.90;;;;;;5032316;28;20033;-41
2022/12/04 08:01:46;;;;;;;37.13;15.05;;;4.90;99.90;;;;;;5030836;28;20040;-41
2022/12/04 08:04:12;;;;;;;31.33;15.00;;;3.70;99.90;;;;;;5032319;28;20029;-43
2022/12/04 08:06:38;;;;;;;30.30;14.75;;;5.20;99.90;;;;;;5031773;28;20533;-44
2022/12/04 08:09:05;;;;;;;32.20;14.30;;;4.80;99.90;;;;;;5032118;28;20028;-48
2022/12/04 08:11:30;;;;;;;31.40;14.20;;;4.50;99.90;;;;;;5031792;28;20025;-40
2022/12/04 08:14:01;;;;;;;30.60;14.43;;;4.60;99.90;;;;;;5031773;28;20095;-41
2022/12/04 08:16:29;;;;;;;35.55;14.88;;;4.50;99.90;;;;;;5031300;28;20083;-47
2022/12/04 08:18:55;;;;;;;33.00;14.95;;;4.80;99.90;;;;;;5038270;28;20037;-47
2022/12/04 08:21:23;;;;;;;35.75;15.95;;;4.20;99.90;;;;;;5031624;28;20018;-40
2022/12/04 08:23:54;;;;;;;33.40;16.20;;;4.50;99.90;;;;;;5031667;28;20053;-42
2022/12/04 08:26:21;;;;;;;31.70;14.02;;;4.60;99.90;;;;;;5031343;28;20540;-51
2022/12/04 08:28:47;;;;;;;34.25;15.80;;;4.40;99.90;;;;;;5031543;28;20037;-46
2022/12/04 08:31:18;;;;;;;36.88;16.20;;;4.30;99.90;;;;;;5063382;28;20033;-46
2022/12/04 08:33:46;;;;;;;36.67;15.70;;;4.50;99.90;;;;;;5031491;28;20037;-44
2022/12/04 08:36:14;;;;;;;38.33;16.58;;;3.70;99.90;;;;;;5031722;28;20029;-44
2022/12/04 08:38:40;;;;;;;33.23;15.63;;;4.50;99.90;;;;;;5031487;28;20033;-40
2022/12/04 08:41:08;;;;;;;36.28;16.67;;;4.80;99.90;;;;;;5031493;28;20026;-39
2022/12/04 08:43:33;;;;;;;38.70;17.27;;;5.40;99.90;;;;;;5031313;28;20021;-39
2022/12/04 08:46:08;;;;;;;37.03;16.05;;;5.10;99.90;;;;;;5063420;28;20491;-45
2022/12/04 08:48:34;;;;;;;35.22;15.65;;;4.00;99.90;;;;;;5031312;28;20116;-40
2022/12/04 08:51:00;;;;;;;32.70;16.05;;;5.00;99.90;;;;;;5030264;28;20506;-51
2022/12/04 08:53:26;;;;;;;38.88;15.00;;;4.20;99.90;;;;;;5031263;28;20043;-47
2022/12/04 08:55:54;;;;;;;31.77;14.35;;;4.30;99.90;;;;;;5030723;28;20538;-42
2022/12/04 08:58:21;;;;;;;39.22;15.88;;;4.90;99.90;;;;;;5030812;28;20037;-46
2022/12/04 09:00:47;;;;;;;38.45;15.68;;;4.30;99.90;;;;;;5031137;28;20481;-43
2022/12/04 09:03:15;;;;;;;33.85;15.65;;;4.20;99.90;;;;;;5062687;28;20037;-52
2022/12/04 09:05:42;;;;;;;32.88;15.25;;;4.60;99.90;;;;;;5031143;28;20109;-49
2022/12/04 09:08:07;;;;;;;34.03;14.35;;;4.60;99.90;;;;;;5031026;28;20034;-49
2022/12/04 09:10:36;;;;;;;34.25;14.48;;;4.60;99.90;;;;;;5030810;28;20082;-52
2022/12/04 09:13:02;;;;;;;31.73;15.23;;;4.60;99.90;;;;;;5029988;28;20112;-40
2022/12/04 09:15:28;;;;;;;36.35;16.15;;;3.60;99.90;;;;;;5030887;28;20144;-45
2022/12/04 09:17:54;;;;;;;38.28;15.90;;;3.70;99.90;;;;;;5030965;28;20033;-44
2022/12/04 09:20:20;;;;;;;37.15;15.38;;;4.50;99.90;;;;;;5030869;28;20506;-48
2022/12/04 09:22:45;;;;;;;31.30;14.32;;;4.70;99.90;;;;;;5031062;28;20074;-52
2022/12/04 09:25:11;;;;;;;36.35;15.27;;;4.20;99.90;;;;;;5029554;28;20538;-50
2022/12/04 09:27:40;;;;;;;27.63;13.40;;;5.20;99.90;;;;;;5030437;28;20413;-56
2022/12/04 09:30:07;;;;;;;33.60;15.30;;;3.40;99.90;;;;;;5031165;28;20032;-42
2022/12/04 09:32:33;;;;;;;31.25;14.85;;;3.50;99.90;;;;;;5030572;28;20484;-47
2022/12/04 09:34:59;;;;;;;26.98;13.88;;;5.30;99.90;;;;;;5030827;28;20041;-45
2022/12/04 09:37:24;;;;;;;27.77;13.57;;;4.80;99.90;;;;;;5030576;28;20041;-46
2022/12/04 09:39:50;;;;;;;29.38;12.82;;;4.90;99.90;;;;;;5035038;28;20037;-40
2022/12/04 09:42:45;;;;;;;30.58;12.25;;;5.20;99.90;;;;;;5034663;28;20025;-54
2022/12/04 09:45:36;;;;;;;26.35;12.02;;;5.00;99.90;;;;;;5030884;28;20029;-39
2022/12/04 09:48:02;;;;;;;26.00;12.60;;;5.00;99.90;;;;;;5030663;28;20022;-47
2022/12/04 09:50:39;;;;;;;27.65;12.50;;;5.10;99.90;;;;;;5030742;28;20028;-40
2022/12/04 09:53:19;;;;;;;27.70;12.90;;;5.20;99.90;;;;;;5030614;28;20503;-57
2022/12/04 09:55:57;;;;;;;32.65;14.23;;;5.00;99.90;;;;;;5030122;28;20546;-43
2022/12/04 09:58:31;;;;;;;27.63;12.43;;;5.00;99.90;;;;;;5030264;28;20037;-46
2022/12/04 10:00:59;;;;;;;29.75;12.95;;;5.50;99.90;;;;;;5030556;28;20026;-46
2022/12/04 10:03:29;;;;;;;25.67;13.02;;;5.10;99.90;;;;;;5030531;28;20026;-52
2022/12/04 10:06:03;;;;;;;29.23;12.93;;;5.80;99.90;;;;;;5030318;28;20041;-40
2022/12/04 10:08:41;;;;;;;27.15;11.98;;;5.40;99.90;;;;;;5030438;28;20024;-50
2022/12/04 10:11:25;;;;;;;22.92;11.77;;;5.60;99.90;;;;;;5030146;28;20064;-40
2022/12/04 10:13:59;;;;;;;29.42;13.05;;;5.20;99.90;;;;;;5038909;28;20025;-51
2022/12/04 10:16:52;;;;;;;25.92;12.70;;;5.20;99.90;;;;;;5050602;28;20388;-41
2022/12/04 10:19:36;;;;;;;26.40;12.65;;;5.50;99.90;;;;;;5039429;28;20032;-42
2022/12/04 10:22:20;;;;;;;28.48;12.85;;;5.20;99.90;;;;;;5049685;28;20060;-47
2022/12/04 10:24:53;;;;;;;27.70;13.23;;;5.20;99.90;;;;;;5049335;28;20444;-44
2022/12/04 10:27:26;;;;;;;28.40;11.82;;;5.30;99.90;;;;;;5044372;28;20029;-49
2022/12/04 10:29:59;;;;;;;29.70;12.05;;;5.30;99.90;;;;;;5044979;28;20055;-47
2022/12/04 10:32:29;;;;;;;22.85;11.10;;;5.30;99.90;;;;;;5035551;28;20040;-43
2022/12/04 10:35:01;;;;;;;28.83;12.25;;;5.60;99.90;;;;;;5033910;28;20026;-48
2022/12/04 10:37:27;;;;;;;28.02;12.32;;;5.40;99.90;;;;;;5042284;28;20040;-52
2022/12/04 10:39:54;;;;;;;21.00;10.85;;;5.50;99.90;;;;;;5033768;28;20034;-40
2022/12/04 10:42:52;;;;;;;23.98;12.05;;;5.40;99.90;;;;;;5033404;28;20030;-41
2022/12/04 10:45:19;;;;;;;26.48;12.07;;;5.50;99.90;;;;;;5034958;28;20373;-44
2022/12/04 10:47:48;;;;;;;25.95;12.15;;;6.30;99.90;;;;;;5034826;28;20030;-40
2022/12/04 10:50:18;;;;;;;23.67;11.38;;;5.70;99.90;;;;;;5033734;28;20083;-39
2022/12/04 10:52:44;;;;;;;26.75;11.15;;;5.60;99.90;;;;;;5033430;28;20518;-38
2022/12/04 10:55:11;;;;;;;24.55;10.73;;;3.30;99.90;;;;;;5037382;28;20029;-40
2022/12/04 10:57:40;;;;;;;25.55;11.00;;;6.00;99.90;;;;;;5033216;28;20045;-41
2022/12/04 11:00:30;;;;;;;22.58;10.43;;;5.50;99.90;;;;;;5033324;28;20546;-42
2022/12/04 11:02:57;;;;;;;;;;;5.40;99.90;;;;;;5033224;28;20079;-51
2022/12/04 11:05:23;;;;;;;22.77;10.43;;;7.80;99.90;;;;;;5033115;28;19912;-56
2022/12/04 11:07:50;;;;;;;21.40;10.20;;;5.40;99.90;;;;;;5033174;28;20029;-49
2022/12/04 11:10:31;;;;;;;19.15;9.70;;;5.40;99.90;;;;;;5033107;28;20021;-53
2022/12/04 11:13:17;;;;;;;23.40;10.07;;;5.30;99.90;;;;;;5033212;28;20083;-52
2022/12/04 11:15:54;;;;;;;20.10;10.40;;;3.50;99.90;;;;;;5032188;28;20036;-45
2022/12/04 11:18:25;;;;;;;21.52;9.43;;;5.40;99.90;;;;;;5031322;28;20030;-44
2022/12/04 11:21:01;;;;;;;22.02;9.95;;;6.40;99.90;;;;;;5031274;28;20017;-40
2022/12/04 11:23:33;;;;;;;21.80;10.52;;;5.40;99.90;;;;;;5031343;28;20072;-49
2022/12/04 11:25:59;;;;;;;23.23;11.13;;;5.70;99.90;;;;;;5030830;28;20028;-42
2022/12/04 11:28:29;;;;;;;21.55;9.18;;;5.50;99.90;;;;;;5031409;28;20040;-49
2022/12/04 11:30:58;;;;;;;20.98;9.25;;;5.40;99.90;;;;;;5032280;28;20100;-48
2022/12/04 11:33:31;;;;;;;21.98;9.88;;;5.40;99.90;;;;;;5032887;28;20052;-40
2022/12/04 11:36:01;;;;;;;25.02;10.13;;;5.40;99.90;;;;;;5032184;28;20018;-43
2022/12/04 11:38:29;;;;;;;21.17;10.32;;;5.40;99.90;;;;;;5042077;28;20029;-42
2022/12/04 11:40:57;;;;;;;18.08;8.80;;;4.60;99.90;;;;;;5047351;28;20044;-49
2022/12/04 11:43:28;;;;;;;19.95;9.88;;;5.40;99.90;;;;;;5044469;28;20032;-45
2022/12/04 11:46:07;;;;;;;18.55;8.63;;;5.50;99.90;;;;;;5048792;28;20491;-42
2022/12/04 11:48:44;;;;;;;21.77;9.00;;;6.10;99.90;;;;;;5049942;28;20487;-44
2022/12/04 11:51:31;;;;;;;18.60;9.15;;;5.60;99.90;;;;;;5048192;28;20491;-43
2022/12/04 11:54:24;;;;;;;15.90;8.07;;;5.60;99.90;;;;;;5047443;28;20087;-41
2022/12/04 11:57:03;;;;;;;15.60;8.35;;;5.70;99.90;;;;;;5039557;28;20045;-52
2022/12/04 11:59:29;;;;;;;20.38;8.75;;;;;;;;;;5041942;28;20056;-45
2022/12/04 12:02:19;;;;;;;20.13;8.73;;;5.70;99.90;;;;;;5032606;28;20049;-53
2022/12/04 12:05:30;;;;;;;17.70;8.52;;;5.80;99.90;;;;;;5047966;28;20146;-48
2022/12/04 12:07:55;;;;;;;15.52;7.95;;;6.20;99.90;;;;;;5026402;28;20377;-51
2022/12/04 12:10:29;;;;;;;16.52;8.55;;;7.00;99.90;;;;;;5031740;28;20023;-44
2022/12/04 12:13:16;;;;;;;14.65;7.80;;;6.00;99.90;;;;;;5031704;28;20017;-49
2022/12/04 12:15:51;;;;;;;15.80;7.85;;;5.70;99.90;;;;;;5035820;28;20100;-45
2022/12/04 12:18:19;;;;;;;19.80;8.63;;;5.80;99.90;;;;;;5040031;28;20037;-39
2022/12/04 12:21:07;;;;;;;16.65;7.75;;;5.80;99.90;;;;;;5029329;28;20420;-54
2022/12/04 12:24:03;;;;;;;17.52;8.05;;;5.70;99.90;;;;;;5031813;28;20492;-47
2022/12/04 12:27:12;;;;;;;16.27;8.18;;;5.80;99.90;;;;;;5029598;28;20388;-46
2022/12/04 12:30:03;;;;;;;19.85;8.75;;;5.80;99.90;;;;;;5026520;28;20113;-45
2022/12/04 12:32:39;;;;;;;15.38;8.40;;;5.30;99.90;;;;;;5044633;28;20029;-42
2022/12/04 12:35:19;;;;;;;18.40;8.50;;;5.70;99.90;;;;;;5044046;28;20028;-42
2022/12/04 12:38:15;;;;;;;15.02;8.20;;;5.60;99.90;;;;;;5036265;28;20133;-42
2022/12/04 12:40:54;;;;;;;16.30;8.25;;;5.80;99.90;;;;;;5034374;28;20748;-39
2022/12/04 12:43:34;;;;;;;;;;;5.80;99.90;;;;;;5041041;28;20025;-42
2022/12/04 12:46:06;;;;;;;;;;;5.80;99.90;;;;;;5046019;28;19955;-43
2022/12/04 12:48:41;;;;;;;18.73;9.68;;;5.80;99.90;;;;;;5046579;28;19915;-41
2022/12/04 12:51:29;;;;;;;20.58;8.90;;;5.70;99.90;;;;;;5045375;28;20017;-40
2022/12/04 12:54:01;;;;;;;20.88;8.15;;;5.80;99.90;;;;;;5049152;28;20075;-41
2022/12/04 12:56:37;;;;;;;19.48;9.40;;;5.90;99.90;;;;;;5046162;28;20040;-42
2022/12/04 12:59:09;;;;;;;19.60;8.82;;;5.80;99.90;;;;;;5041751;28;20538;-46
2022/12/04 13:01:48;;;;;;;19.48;9.25;;;5.80;99.90;;;;;;5027236;28;20029;-40
2022/12/04 13:04:40;;;;;;;21.03;10.47;;;5.80;99.90;;;;;;5024559;28;20109;-49
2022/12/04 13:07:16;;;;;;;19.23;9.98;;;5.80;99.90;;;;;;5036183;28;20321;-43
2022/12/04 13:09:52;;;;;;;22.48;9.88;;;5.80;99.90;;;;;;5028587;28;20029;-41
2022/12/04 13:12:19;;;;;;;17.42;8.95;;;6.20;99.90;;;;;;5032012;28;20110;-52
2022/12/04 13:14:45;;;;;;;21.48;10.55;;;5.80;99.90;;;;;;5030549;28;20393;-45